South Newport, Georgia
Current Conditions -  °F | °C
As of 3:11 AM on Monday 22 Dec 2014 (Local Time) from KLHW Reporting Station
Overcast Overcast  
Wind Chill: 44°   Ceiling: 300
Heat Index: 48°   Visibility: 9mi
Dew Point: 46°   Wind: 9mph
Humidity: 93%   Direction: 90°E
Pressure: 30"   Gusts: NA
Location:  31.7217°N, 81.4475°W
Report Text: KLHW 220811Z AUTO 09008KT 9SM R33/5500FT OVC003 09/08 A3000 RMK AO2 PRESFR
Loading
Personal Weather Stations






























Interactive Weather Map New forecast layout! Learn more

10-Day Weather Forecast

Advertisements
Track Severe Weather on mobile